Time;durP1;ratioP1;P1;durP2;ratioP2;P2;SDS_P1;SDS_P2;PMS_P1;PMS_P2;Temp;Humidity;BMP_temperature;BMP_pressure;BME280_temperature;BME280_humidity;BME280_pressure;Samples;Min_cycle;Max_cycle;Signal;HPM_P1;HPM_P2
2022/04/05 00:00:34;;;;;;;0.20;0.20;;;8.20;99.90;;;;;;5048817;28;21001;-87
2022/04/05 00:02:59;;;;;;;0.20;0.20;;;8.10;99.90;;;;;;5082942;28;20269;-87
2022/04/05 00:05:25;;;;;;;0.43;0.43;;;8.10;99.90;;;;;;5048590;28;20320;-86
2022/04/05 00:07:51;;;;;;;0.17;0.17;;;8.10;99.90;;;;;;5066098;28;20504;-87
2022/04/05 00:10:17;;;;;;;0.80;0.80;;;8.10;99.90;;;;;;5065702;28;20225;-87
2022/04/05 00:12:43;;;;;;;1.60;0.83;;;8.10;99.90;;;;;;5065641;28;20231;-88
2022/04/05 00:15:10;;;;;;;0.40;0.40;;;8.10;99.90;;;;;;5067071;28;20225;-87
2022/04/05 00:17:36;;;;;;;6.43;1.30;;;8.20;99.90;;;;;;5065915;28;20185;-88
2022/04/05 00:20:03;;;;;;;2.63;0.30;;;8.10;99.90;;;;;;5049165;28;20185;-88
2022/04/05 00:22:29;;;;;;;0.93;0.67;;;8.20;99.90;;;;;;5066793;28;20316;-87
2022/04/05 00:24:55;;;;;;;0.50;0.50;;;8.20;99.90;;;;;;5064633;28;20706;-88
2022/04/05 00:27:20;;;;;;;0.30;0.30;;;8.20;99.90;;;;;;5046973;28;20220;-86
2022/04/05 00:29:46;;;;;;;0.77;0.77;;;8.20;99.90;;;;;;5081697;28;20217;-87
2022/04/05 00:32:12;;;;;;;0.67;0.23;;;8.20;99.90;;;;;;5082482;28;20805;-87
2022/04/05 00:34:39;;;;;;;1.10;0.47;;;8.20;99.90;;;;;;5048845;28;20690;-87
2022/04/05 00:37:04;;;;;;;1.67;1.57;;;8.30;99.90;;;;;;5082020;28;20294;-87
2022/04/05 00:39:30;;;;;;;0.20;0.20;;;8.30;99.90;;;;;;5048796;28;20217;-87
2022/04/05 00:41:56;;;;;;;0.60;0.60;;;8.30;99.90;;;;;;5082121;28;20260;-87
2022/04/05 00:44:23;;;;;;;0.87;0.87;;;8.30;99.90;;;;;;5047923;28;20221;-88
2022/04/05 00:46:51;;;;;;;0.63;0.50;;;8.30;99.90;;;;;;5066008;28;20200;-87
2022/04/05 00:49:24;;;;;;;0.30;0.30;;;8.30;99.90;;;;;;5081856;28;20294;-87
2022/04/05 00:51:49;;;;;;;0.30;0.30;;;8.30;99.90;;;;;;5057156;28;20221;-86
2022/04/05 00:54:16;;;;;;;0.30;0.30;;;8.30;99.90;;;;;;5065864;28;20228;-87
2022/04/05 00:56:44;;;;;;;0.20;0.20;;;8.30;99.90;;;;;;5048563;28;20227;-87
2022/04/05 00:59:12;;;;;;;5.17;1.17;;;8.30;99.90;;;;;;5057062;28;20197;-87
2022/04/05 01:01:38;;;;;;;0.30;0.30;;;8.30;99.90;;;;;;5064937;28;20248;-87
2022/04/05 01:04:04;;;;;;;5.93;0.93;;;8.30;99.90;;;;;;5081578;28;20286;-87
2022/04/05 01:06:34;;;;;;;0.20;0.20;;;8.30;99.90;;;;;;5065540;28;20700;-88
2022/04/05 01:09:00;;;;;;;0.40;0.40;;;8.30;99.90;;;;;;5066842;28;20362;-87
2022/04/05 01:11:26;;;;;;;2.43;2.23;;;8.30;99.90;;;;;;5065100;28;20221;-87
2022/04/05 01:13:54;;;;;;;0.57;0.57;;;8.30;99.90;;;;;;5048805;28;20196;-86
2022/04/05 01:16:21;;;;;;;0.67;0.63;;;8.30;99.90;;;;;;5064721;28;20223;-87
2022/04/05 01:18:48;;;;;;;0.40;0.40;;;8.30;99.90;;;;;;5048335;28;20217;-87
2022/04/05 01:21:14;;;;;;;0.30;0.30;;;8.30;99.90;;;;;;5081931;28;20232;-88
2022/04/05 01:24:08;;;;;;;1.03;0.97;;;8.30;99.90;;;;;;5081941;28;20232;-87
2022/04/05 01:26:51;;;;;;;0.20;0.20;;;8.30;99.90;;;;;;5063899;28;20222;-87
2022/04/05 01:29:19;;;;;;;0.30;0.30;;;8.30;99.90;;;;;;5066301;28;20723;-87
2022/04/05 01:31:47;;;;;;;0.30;0.30;;;8.30;99.90;;;;;;5066343;28;20205;-87
2022/04/05 01:34:15;;;;;;;1.87;0.27;;;8.20;99.90;;;;;;5055894;28;20253;-87
2022/04/05 01:36:43;;;;;;;1.27;0.50;;;8.20;99.90;;;;;;5065534;28;20213;-87
2022/04/05 01:39:10;;;;;;;0.23;0.20;;;8.20;99.90;;;;;;5048198;28;20270;-88
2022/04/05 01:41:36;;;;;;;2.40;2.20;;;8.20;99.90;;;;;;5066409;28;20181;-87
2022/04/05 01:44:05;;;;;;;6.23;1.13;;;8.20;99.90;;;;;;5082049;28;20682;-87
2022/04/05 01:46:32;;;;;;;1.90;0.50;;;8.20;99.90;;;;;;5047419;28;20231;-86
2022/04/05 01:48:57;;;;;;;3.63;0.63;;;8.20;99.90;;;;;;5056776;28;20209;-88
2022/04/05 01:51:23;;;;;;;2.43;0.57;;;8.30;99.90;;;;;;5064515;28;20580;-88
2022/04/05 01:53:49;;;;;;;10.77;0.70;;;8.30;99.90;;;;;;5064133;28;20270;-88
2022/04/05 01:56:15;;;;;;;0.43;0.43;;;8.30;99.90;;;;;;5047512;28;20193;-88
2022/04/05 01:58:40;;;;;;;3.37;0.53;;;8.30;99.90;;;;;;5064496;28;20352;-87
2022/04/05 02:01:06;;;;;;;9.63;1.50;;;8.30;99.90;;;;;;5046117;28;20233;-87
2022/04/05 02:03:32;;;;;;;2.80;0.40;;;8.30;99.90;;;;;;5080966;28;20244;-87
2022/04/05 02:05:58;;;;;;;0.63;0.63;;;8.30;99.90;;;;;;5046606;28;20300;-88
2022/04/05 02:08:25;;;;;;;3.30;0.93;;;8.20;99.90;;;;;;5064541;28;20194;-88
2022/04/05 02:10:50;;;;;;;19.67;1.00;;;8.30;99.90;;;;;;5074097;28;20193;-87
2022/04/05 02:13:16;;;;;;;13.57;1.10;;;8.30;99.90;;;;;;5064148;28;20244;-88
2022/04/05 02:15:42;;;;;;;1.50;0.60;;;8.30;99.90;;;;;;5081016;28;20582;-87
2022/04/05 02:18:08;;;;;;;0.63;0.60;;;8.30;99.90;;;;;;5047365;28;20745;-86
2022/04/05 02:20:34;;;;;;;1.40;1.13;;;8.30;99.90;;;;;;5064726;28;20209;-88
2022/04/05 02:23:00;;;;;;;6.80;0.83;;;8.30;99.90;;;;;;5064446;28;20332;-87
2022/04/05 02:25:26;;;;;;;5.10;0.93;;;8.20;99.90;;;;;;5064473;28;20221;-88
2022/04/05 02:27:52;;;;;;;0.27;0.27;;;8.20;99.90;;;;;;5063945;28;20225;-86
2022/04/05 02:30:18;;;;;;;1.07;0.77;;;8.20;99.90;;;;;;5080568;28;20219;-87
2022/04/05 02:32:44;;;;;;;0.47;0.47;;;8.20;99.90;;;;;;5080803;28;20600;-88
2022/04/05 02:35:11;;;;;;;0.63;0.63;;;8.20;99.90;;;;;;5058091;28;20650;-88
2022/04/05 02:37:38;;;;;;;1.13;1.03;;;8.20;99.90;;;;;;5062901;28;20240;-87
2022/04/05 02:40:04;;;;;;;0.23;0.23;;;8.20;99.90;;;;;;5046392;28;20247;-87
2022/04/05 02:42:30;;;;;;;0.80;0.80;;;8.10;99.90;;;;;;5046368;28;20285;-87
2022/04/05 02:44:56;;;;;;;0.20;0.20;;;8.20;99.90;;;;;;5064010;28;20723;-86
2022/04/05 02:47:22;;;;;;;0.93;0.93;;;8.20;99.90;;;;;;5065155;28;20185;-87
2022/04/05 02:49:49;;;;;;;0.80;0.80;;;8.20;99.90;;;;;;5048230;28;20197;-88
2022/04/05 02:52:15;;;;;;;2.90;0.97;;;8.20;99.90;;;;;;5063475;28;20225;-88
2022/04/05 02:54:42;;;;;;;11.57;2.37;;;8.30;99.90;;;;;;5065115;28;20239;-87
2022/04/05 02:57:08;;;;;;;1.77;1.37;;;8.30;99.90;;;;;;5079798;28;20241;-87
2022/04/05 02:59:33;;;;;;;0.77;0.73;;;8.30;99.90;;;;;;5064014;28;20267;-87
2022/04/05 03:02:00;;;;;;;1.30;0.60;;;8.30;99.90;;;;;;5045657;28;20236;-88
2022/04/05 03:04:25;;;;;;;1.97;0.80;;;8.30;99.90;;;;;;5080265;28;21014;-87
2022/04/05 03:06:51;;;;;;;0.33;0.13;;;8.30;99.90;;;;;;5047499;28;20225;-88
2022/04/05 03:09:17;;;;;;;7.27;1.10;;;8.30;99.90;;;;;;5064407;28;20235;-88
2022/04/05 03:11:43;;;;;;;3.97;0.80;;;8.30;99.90;;;;;;5047165;28;20224;-88
2022/04/05 03:14:10;;;;;;;3.53;1.67;;;8.30;99.90;;;;;;5049629;28;20201;-87
2022/04/05 03:16:37;;;;;;;0.97;0.97;;;8.30;99.90;;;;;;5066182;28;20243;-88
2022/04/05 03:19:05;;;;;;;0.77;0.73;;;8.30;99.90;;;;;;5067167;28;20240;-88
2022/04/05 03:21:32;;;;;;;1.83;1.30;;;8.30;99.90;;;;;;5083964;28;20741;-87
2022/04/05 03:23:57;;;;;;;0.20;0.20;;;8.30;99.90;;;;;;5083046;28;20229;-86
2022/04/05 03:26:23;;;;;;;2.20;1.77;;;8.20;99.90;;;;;;5083026;28;20203;-86
2022/04/05 03:28:49;;;;;;;0.40;0.40;;;8.10;99.90;;;;;;5049372;28;20642;-87
2022/04/05 03:31:15;;;;;;;1.90;1.33;;;8.20;99.90;;;;;;5048213;28;20225;-86
2022/04/05 03:33:40;;;;;;;0.50;0.50;;;8.20;99.90;;;;;;5065970;28;20224;-87
2022/04/05 03:36:06;;;;;;;0.77;0.77;;;8.30;99.90;;;;;;5082304;28;20285;-87
2022/04/05 03:38:32;;;;;;;0.77;0.77;;;8.20;99.90;;;;;;5048457;28;20196;-86
2022/04/05 03:40:58;;;;;;;0.70;0.60;;;8.20;99.90;;;;;;5049213;28;20196;-86
2022/04/05 03:43:23;;;;;;;0.43;0.43;;;8.20;99.90;;;;;;5048878;28;20254;-86
2022/04/05 03:45:49;;;;;;;0.30;0.30;;;8.20;99.90;;;;;;5066995;28;20678;-87
2022/04/05 03:48:16;;;;;;;0.67;0.50;;;8.10;99.90;;;;;;5064890;28;20224;-86
2022/04/05 03:50:42;;;;;;;0.63;0.63;;;8.10;99.90;;;;;;5048889;28;20220;-87
2022/04/05 03:53:08;;;;;;;0.67;0.67;;;8.20;99.90;;;;;;5082758;28;20764;-86
2022/04/05 03:55:34;;;;;;;3.67;1.07;;;8.10;99.90;;;;;;5082461;28;20221;-86
2022/04/05 03:58:00;;;;;;;5.57;0.97;;;8.10;99.90;;;;;;5065153;28;21194;-86
2022/04/05 04:00:26;;;;;;;1.13;0.43;;;8.10;99.90;;;;;;5065913;28;20225;-87
2022/04/05 04:02:51;;;;;;;1.50;1.50;;;8.10;99.90;;;;;;5065464;28;20240;-86
2022/04/05 04:05:20;;;;;;;0.87;0.80;;;8.00;99.90;;;;;;5065804;28;20194;-86
2022/04/05 04:07:48;;;;;;;1.77;1.03;;;8.00;99.90;;;;;;5049587;28;20553;-87
2022/04/05 04:10:15;;;;;;;3.50;0.90;;;8.10;99.90;;;;;;5081770;28;20331;-87
2022/04/05 04:12:40;;;;;;;1.27;0.63;;;8.00;99.90;;;;;;5066180;28;20220;-86
2022/04/05 04:15:07;;;;;;;10.10;0.93;;;8.10;99.90;;;;;;5081582;28;20217;-87
2022/04/05 04:17:33;;;;;;;5.70;0.80;;;8.00;99.90;;;;;;5048277;28;20194;-86
2022/04/05 04:19:59;;;;;;;3.80;0.73;;;8.10;99.90;;;;;;5065120;28;20220;-86
2022/04/05 04:22:26;;;;;;;6.83;1.23;;;8.10;99.90;;;;;;5082522;28;20337;-87
2022/04/05 04:24:53;;;;;;;1.97;1.07;;;8.10;99.90;;;;;;5062923;28;20279;-87
2022/04/05 04:27:19;;;;;;;0.10;0.10;;;8.00;99.90;;;;;;5065517;28;20213;-85
2022/04/05 04:29:44;;;;;;;8.93;2.00;;;8.00;99.90;;;;;;5081979;28;20631;-87
2022/04/05 04:32:10;;;;;;;3.40;0.40;;;8.00;99.90;;;;;;5048794;28;20224;-86
2022/04/05 04:34:36;;;;;;;9.83;1.57;;;8.00;99.90;;;;;;5047953;28;20278;-87
2022/04/05 04:37:04;;;;;;;2.20;1.53;;;7.90;99.90;;;;;;5064630;28;20221;-86
2022/04/05 04:39:29;;;;;;;4.20;1.40;;;7.90;99.90;;;;;;5081013;28;20213;-86
2022/04/05 04:41:58;;;;;;;6.37;0.50;;;7.90;99.90;;;;;;5081616;28;20224;-87
2022/04/05 04:44:24;;;;;;;0.73;0.73;;;7.90;99.90;;;;;;5081112;28;20209;-88
2022/04/05 04:46:50;;;;;;;3.43;0.50;;;8.00;99.90;;;;;;5048604;28;20684;-87
2022/04/05 04:49:16;;;;;;;3.47;0.53;;;8.00;99.90;;;;;;5081040;28;20217;-87
2022/04/05 04:51:41;;;;;;;8.30;1.37;;;8.00;99.90;;;;;;5064731;28;20221;-86
2022/04/05 04:54:07;;;;;;;0.33;0.33;;;8.00;99.90;;;;;;5081750;28;20221;-89
2022/04/05 04:56:33;;;;;;;0.20;0.20;;;7.90;99.90;;;;;;5064670;28;20690;-88
2022/04/05 04:58:59;;;;;;;6.67;0.60;;;7.90;99.90;;;;;;5081947;28;20280;-86
2022/04/05 05:01:25;;;;;;;5.63;1.13;;;7.90;99.90;;;;;;5064217;28;20249;-89
2022/04/05 05:03:51;;;;;;;1.33;1.10;;;7.90;99.90;;;;;;5081105;28;20233;-89
2022/04/05 05:06:17;;;;;;;1.03;0.77;;;7.90;99.90;;;;;;5040727;28;20232;-85
2022/04/05 05:08:43;;;;;;;2.07;1.23;;;7.90;99.90;;;;;;5045476;28;20221;-87
2022/04/05 05:11:11;;;;;;;0.40;0.40;;;7.90;99.90;;;;;;5064008;28;20190;-86
2022/04/05 05:13:37;;;;;;;1.60;0.93;;;7.90;99.90;;;;;;5047200;28;20229;-87
2022/04/05 05:16:03;;;;;;;3.50;1.10;;;7.90;99.90;;;;;;5046535;28;20279;-87
2022/04/05 05:18:29;;;;;;;0.20;0.20;;;7.90;99.90;;;;;;5063581;28;20300;-87
2022/04/05 05:20:55;;;;;;;2.63;0.70;;;7.80;99.90;;;;;;5081048;28;20299;-88
2022/04/05 05:23:22;;;;;;;0.20;0.20;;;7.80;99.90;;;;;;5047670;28;20324;-89
2022/04/05 05:25:48;;;;;;;5.23;0.87;;;7.80;99.90;;;;;;5065380;28;20189;-89
2022/04/05 05:28:14;;;;;;;0.37;0.37;;;7.80;99.90;;;;;;5064845;28;20704;-89
2022/04/05 05:30:40;;;;;;;1.03;1.03;;;7.80;99.90;;;;;;5064804;28;20310;-86
2022/04/05 05:33:06;;;;;;;0.50;0.50;;;7.90;99.90;;;;;;5061563;28;20396;-84
2022/04/05 05:35:33;;;;;;;1.33;0.43;;;7.90;99.90;;;;;;5054930;28;20197;-87
2022/04/05 05:37:59;;;;;;;0.60;0.60;;;7.90;99.90;;;;;;5047129;28;20339;-86
2022/04/05 05:40:25;;;;;;;0.83;0.50;;;8.00;99.90;;;;;;5062702;28;20221;-86
2022/04/05 05:42:52;;;;;;;2.30;0.43;;;8.00;99.90;;;;;;5046548;28;20346;-88
2022/04/05 05:45:19;;;;;;;0.10;0.10;;;8.00;99.90;;;;;;5064591;28;20605;-85
2022/04/05 05:47:45;;;;;;;0.30;0.30;;;8.10;99.90;;;;;;5047615;28;20209;-89
2022/04/05 05:50:12;;;;;;;0.83;0.67;;;8.10;99.90;;;;;;5063811;28;20646;-86
2022/04/05 05:52:40;;;;;;;0.50;0.50;;;8.00;99.90;;;;;;5064481;28;20228;-87
2022/04/05 05:55:07;;;;;;;0.40;0.40;;;8.10;99.90;;;;;;5045977;28;20213;-88
2022/04/05 05:57:34;;;;;;;0.20;0.20;;;8.10;99.90;;;;;;5063056;28;20308;-85
2022/04/05 05:59:59;;;;;;;0.83;0.83;;;8.10;99.90;;;;;;5047815;28;20240;-90
2022/04/05 06:02:25;;;;;;;1.43;0.50;;;8.10;99.90;;;;;;5062475;28;20708;-90
2022/04/05 06:04:51;;;;;;;1.10;0.57;;;8.10;99.90;;;;;;5063150;28;20247;-89
2022/04/05 06:07:17;;;;;;;0.40;0.40;;;8.20;99.90;;;;;;5046205;28;20217;-87
2022/04/05 06:09:42;;;;;;;0.57;0.57;;;8.20;99.90;;;;;;5065273;28;20213;-87
2022/04/05 06:12:08;;;;;;;0.47;0.47;;;8.30;99.90;;;;;;5046790;28;20576;-87
2022/04/05 06:14:34;;;;;;;0.70;0.70;;;8.30;99.90;;;;;;5062447;28;20256;-87
2022/04/05 06:17:00;;;;;;;0.30;0.30;;;8.40;99.90;;;;;;5062327;28;20280;-88
2022/04/05 06:19:26;;;;;;;7.60;0.90;;;8.40;99.90;;;;;;5061785;28;20231;-91
2022/04/05 06:21:51;;;;;;;0.50;0.50;;;8.40;99.90;;;;;;5063741;28;20619;-87
2022/04/05 06:24:19;;;;;;;0.40;0.40;;;8.40;99.90;;;;;;5062727;28;20229;-87
2022/04/05 06:26:45;;;;;;;1.40;1.13;;;8.50;99.90;;;;;;5061344;28;20241;-89
2022/04/05 06:29:10;;;;;;;0.30;0.30;;;8.50;99.90;;;;;;5054902;28;20209;-89
2022/04/05 06:31:36;;;;;;;0.27;0.27;;;8.50;99.90;;;;;;5078691;28;20742;-90
2022/04/05 06:34:02;;;;;;;1.43;1.10;;;8.50;99.90;;;;;;5062599;28;20802;-88
2022/04/05 06:36:29;;;;;;;0.53;0.40;;;8.60;99.90;;;;;;5061537;28;20232;-86
2022/04/05 06:38:55;;;;;;;1.17;1.17;;;8.60;99.90;;;;;;5063531;28;20786;-87
2022/04/05 06:41:21;;;;;;;0.73;0.73;;;8.60;99.90;;;;;;5062887;28;20913;-86
2022/04/05 06:43:47;;;;;;;0.63;0.50;;;8.60;99.90;;;;;;5047532;28;20422;-87
2022/04/05 06:46:15;;;;;;;0.33;0.33;;;8.60;99.90;;;;;;5046142;28;20225;-87
2022/04/05 06:48:40;;;;;;;3.77;1.27;;;8.60;99.90;;;;;;5064561;28;20224;-87
2022/04/05 06:51:06;;;;;;;1.90;0.47;;;8.60;99.90;;;;;;5063306;28;20680;-88
2022/04/05 06:53:32;;;;;;;6.00;0.67;;;8.60;99.90;;;;;;5046024;28;20198;-87
2022/04/05 06:55:59;;;;;;;2.57;1.83;;;8.60;99.90;;;;;;5047215;28;20236;-86
2022/04/05 06:58:24;;;;;;;1.90;0.50;;;8.60;99.90;;;;;;5080229;28;20232;-86
2022/04/05 07:00:50;;;;;;;0.60;0.60;;;8.60;99.90;;;;;;5062032;28;20237;-87
2022/04/05 07:03:16;;;;;;;0.40;0.40;;;8.70;99.90;;;;;;5037130;28;20757;-87
2022/04/05 07:05:43;;;;;;;2.03;1.10;;;8.70;99.90;;;;;;5079744;28;20213;-86
2022/04/05 07:08:10;;;;;;;0.60;0.40;;;8.70;99.90;;;;;;5064075;28;20204;-87
2022/04/05 07:10:37;;;;;;;1.23;0.77;;;8.70;99.90;;;;;;5046873;28;20244;-87
2022/04/05 07:13:04;;;;;;;2.97;0.80;;;8.90;99.90;;;;;;5063398;28;20663;-87
2022/04/05 07:15:30;;;;;;;0.20;0.20;;;8.80;99.90;;;;;;5063668;28;20213;-88
2022/04/05 07:17:55;;;;;;;1.07;0.27;;;8.80;99.90;;;;;;5063474;28;20221;-87
2022/04/05 07:20:21;;;;;;;1.47;1.13;;;8.90;99.90;;;;;;5070578;28;20204;-91
2022/04/05 07:22:48;;;;;;;0.90;0.60;;;8.90;99.90;;;;;;5047790;28;20181;-91
2022/04/05 07:25:21;;;;;;;1.27;1.00;;;9.00;99.90;;;;;;5064080;28;20308;-90
2022/04/05 07:27:49;;;;;;;1.03;0.97;;;9.00;99.90;;;;;;5082802;28;20231;-90
2022/04/05 07:30:16;;;;;;;0.43;0.40;;;9.00;99.90;;;;;;5066783;28;20231;-91
2022/04/05 07:32:44;;;;;;;0.27;0.27;;;9.00;99.90;;;;;;5048953;28;20220;-91
2022/04/05 07:35:10;;;;;;;0.30;0.30;;;9.00;99.90;;;;;;5048403;28;20188;-91
2022/04/05 07:37:37;;;;;;;0.40;0.40;;;8.90;99.90;;;;;;5064289;28;20236;-90
2022/04/05 07:40:05;;;;;;;3.10;1.53;;;8.90;99.90;;;;;;5081552;28;20685;-92
2022/04/05 07:42:32;;;;;;;2.47;0.77;;;8.90;99.90;;;;;;5065630;28;20306;-91
2022/04/05 07:44:58;;;;;;;3.50;0.90;;;8.90;99.90;;;;;;5065389;28;20233;-92
2022/04/05 07:47:26;;;;;;;3.07;1.23;;;9.00;99.90;;;;;;5065244;28;20185;-92
2022/04/05 07:49:52;;;;;;;1.00;0.90;;;9.00;99.90;;;;;;5040621;28;20319;-91
2022/04/05 07:52:17;;;;;;;1.53;1.50;;;9.30;99.90;;;;;;5082456;28;20648;-91
2022/04/05 07:54:43;;;;;;;0.70;0.70;;;9.50;99.90;;;;;;5081597;28;20300;-91
2022/04/05 07:57:13;;;;;;;0.77;0.77;;;9.70;99.90;;;;;;5038764;28;21134;-91
2022/04/05 07:59:40;;;;;;;0.70;0.70;;;9.70;99.90;;;;;;5057284;28;20562;-92
2022/04/05 08:02:05;;;;;;;0.70;0.70;;;9.60;99.90;;;;;;5085971;28;20361;-92
2022/04/05 08:04:31;;;;;;;2.63;1.27;;;9.60;99.90;;;;;;5052224;28;20610;-92
2022/04/05 08:06:57;;;;;;;3.97;0.90;;;9.40;99.90;;;;;;5051103;28;20229;-93
2022/04/05 08:09:25;;;;;;;2.63;1.20;;;9.50;99.90;;;;;;5068881;28;20268;-91
2022/04/05 08:11:51;;;;;;;7.50;1.57;;;9.50;99.90;;;;;;5067885;28;20632;-92
2022/04/05 08:14:17;;;;;;;0.50;0.50;;;9.60;99.90;;;;;;5051450;28;20193;-93
2022/04/05 08:16:43;;;;;;;0.67;0.67;;;9.50;99.90;;;;;;5051685;28;20691;-92
2022/04/05 08:19:12;;;;;;;1.47;0.73;;;9.40;99.90;;;;;;5067863;28;20690;-90
2022/04/05 08:21:37;;;;;;;0.60;0.60;;;9.40;99.90;;;;;;5067400;28;20768;-92
2022/04/05 08:24:04;;;;;;;0.40;0.40;;;9.50;99.90;;;;;;5067566;28;20230;-92
2022/04/05 08:26:30;;;;;;;1.43;1.33;;;9.80;99.90;;;;;;5050712;28;20221;-92
2022/04/05 08:28:56;;;;;;;0.30;0.30;;;10.00;99.90;;;;;;5069495;28;21038;-92
2022/04/05 08:31:23;;;;;;;0.40;0.40;;;10.00;99.90;;;;;;5050990;28;20320;-91
2022/04/05 08:33:50;;;;;;;1.20;1.20;;;9.90;99.90;;;;;;5050686;28;20323;-92
2022/04/05 08:36:15;;;;;;;0.33;0.30;;;9.70;99.90;;;;;;5050694;28;20221;-93
2022/04/05 08:38:43;;;;;;;0.20;0.20;;;9.80;99.90;;;;;;5068436;28;20570;-92
2022/04/05 08:41:12;;;;;;;4.97;0.70;;;9.80;99.90;;;;;;5050798;28;20229;-92
2022/04/05 08:43:42;;;;;;;0.43;0.20;;;9.80;99.90;;;;;;5050397;28;20229;-92
2022/04/05 08:46:12;;;;;;;0.40;0.40;;;9.50;99.90;;;;;;5072649;28;20229;-92
2022/04/05 08:48:38;;;;;;;4.00;0.60;;;9.40;99.90;;;;;;5066960;28;20324;-90
2022/04/05 08:51:05;;;;;;;0.30;0.30;;;9.60;99.90;;;;;;5053926;28;20286;-92
2022/04/05 08:53:31;;;;;;;1.03;0.50;;;9.50;99.90;;;;;;5057805;28;20530;-92
2022/04/05 08:55:57;;;;;;;0.20;0.20;;;9.30;99.90;;;;;;5085758;28;20223;-91
2022/04/05 08:58:23;;;;;;;0.30;0.30;;;9.20;99.90;;;;;;5068541;28;20249;-91
2022/04/05 09:00:53;;;;;;;0.20;0.20;;;9.20;99.90;;;;;;5084190;28;20249;-90
2022/04/05 09:03:19;;;;;;;0.77;0.77;;;9.10;99.90;;;;;;5059725;28;20233;-91
2022/04/05 09:05:46;;;;;;;0.20;0.20;;;9.00;99.90;;;;;;5068297;28;20310;-91
2022/04/05 09:08:24;;;;;;;0.40;0.40;;;9.10;99.90;;;;;;5051228;28;20181;-92
2022/04/05 09:11:08;;;;;;;0.67;0.50;;;9.20;99.90;;;;;;5049439;28;20305;-92
2022/04/05 09:13:35;;;;;;;0.73;0.73;;;9.20;99.90;;;;;;5049560;28;20221;-91
2022/04/05 09:16:08;;;;;;;0.50;0.50;;;9.10;99.90;;;;;;5066247;28;20227;-92
2022/04/05 09:18:44;;;;;;;0.37;0.37;;;9.10;99.90;;;;;;5067804;28;20217;-92
2022/04/05 09:21:11;;;;;;;0.43;0.43;;;9.20;99.90;;;;;;5049966;28;20217;-92
2022/04/05 09:23:41;;;;;;;5.50;0.60;;;9.00;99.90;;;;;;5049681;28;20700;-91
2022/04/05 09:26:14;;;;;;;0.73;0.40;;;9.00;99.90;;;;;;5048672;28;20242;-91
2022/04/05 09:28:50;;;;;;;0.50;0.50;;;9.20;99.90;;;;;;5082164;28;20225;-92
2022/04/05 09:31:20;;;;;;;0.37;0.37;;;9.60;99.90;;;;;;5049374;28;20587;-92
2022/04/05 09:34:02;;;;;;;1.17;1.17;;;9.80;99.90;;;;;;5075639;28;20225;-92
2022/04/05 09:36:49;;;;;;;4.50;1.57;;;9.80;99.90;;;;;;5067464;28;20301;-90
2022/04/05 09:39:23;;;;;;;0.30;0.30;;;9.90;99.90;;;;;;5049939;28;20217;-93
2022/04/05 09:42:00;;;;;;;0.73;0.73;;;9.90;99.90;;;;;;5050706;28;20221;-92
2022/04/05 09:44:28;;;;;;;0.10;0.10;;;9.90;99.90;;;;;;5067826;28;20245;-90
2022/04/05 09:47:19;;;;;;;0.47;0.47;;;9.90;99.90;;;;;;5050638;28;20174;-92
2022/04/05 09:49:48;;;;;;;1.17;0.47;;;10.00;99.90;;;;;;5056964;28;20720;-92
2022/04/05 09:52:29;;;;;;;0.63;0.60;;;10.20;99.90;;;;;;5064633;28;20674;-91
2022/04/05 09:54:55;;;;;;;0.60;0.40;;;10.10;99.90;;;;;;5049080;28;20239;-92
2022/04/05 09:57:34;;;;;;;0.20;0.20;;;10.00;99.90;;;;;;5048596;28;21215;-92
2022/04/05 10:00:10;;;;;;;0.77;0.40;;;10.10;99.90;;;;;;5049041;28;20223;-91
2022/04/05 10:02:38;;;;;;;0.33;0.33;;;10.00;99.90;;;;;;5048414;28;20237;-92
2022/04/05 10:05:10;;;;;;;0.20;0.20;;;10.10;99.90;;;;;;5082825;28;20227;-92
2022/04/05 10:07:37;;;;;;;0.30;0.30;;;10.20;99.90;;;;;;5049220;28;20721;-93
2022/04/05 10:10:06;;;;;;;0.10;0.10;;;10.40;99.90;;;;;;5041081;28;20217;-93
2022/04/05 10:12:32;;;;;;;0.40;0.40;;;10.50;99.90;;;;;;5085981;28;20775;-92
2022/04/05 10:15:00;;;;;;;0.20;0.20;;;10.70;99.90;;;;;;5082638;28;20228;-92
2022/04/05 10:17:28;;;;;;;0.27;0.27;;;11.00;99.90;;;;;;5065760;28;20223;-92
2022/04/05 10:19:56;;;;;;;0.40;0.40;;;11.30;99.90;;;;;;5049081;28;20185;-91
2022/04/05 10:22:22;;;;;;;0.37;0.30;;;11.50;99.90;;;;;;5047668;28;20225;-91
2022/04/05 10:24:53;;;;;;;0.17;0.17;;;11.70;99.90;;;;;;5066535;28;20241;-94
2022/04/05 10:27:25;;;;;;;0.30;0.30;;;11.70;99.90;;;;;;5065701;28;20218;-92
2022/04/05 10:30:01;;;;;;;1.07;0.50;;;11.10;99.90;;;;;;5065136;28;20217;-92
2022/04/05 10:32:46;;;;;;;0.73;0.33;;;11.00;99.90;;;;;;5052958;28;20279;-91
2022/04/05 10:35:13;;;;;;;0.30;0.30;;;11.10;99.90;;;;;;5068837;28;20193;-91
2022/04/05 10:37:40;;;;;;;0.73;0.60;;;11.40;99.90;;;;;;5048574;28;20209;-91
2022/04/05 10:40:06;;;;;;;0.93;0.60;;;11.60;99.90;;;;;;5047637;28;20221;-90
2022/04/05 10:42:37;;;;;;;0.50;0.43;;;12.00;99.90;;;;;;5048205;28;20229;-92
2022/04/05 10:45:36;;;;;;;1.27;0.67;;;12.00;99.90;;;;;;5047882;28;20235;-91
2022/04/05 10:48:18;;;;;;;1.67;1.17;;;11.90;99.90;;;;;;5047579;28;20229;-92
2022/04/05 10:51:09;;;;;;;1.00;0.90;;;11.70;99.90;;;;;;5048519;28;20221;-92
2022/04/05 10:53:41;;;;;;;1.40;0.80;;;11.80;99.90;;;;;;5058774;28;20209;-91
2022/04/05 10:56:08;;;;;;;0.80;0.77;;;11.70;99.90;;;;;;5058065;28;20216;-92
2022/04/05 10:58:41;;;;;;;1.20;0.73;;;11.60;99.90;;;;;;5064171;28;20217;-91
2022/04/05 11:01:19;;;;;;;0.80;0.80;;;11.70;99.90;;;;;;5057379;28;20241;-92
2022/04/05 11:04:17;;;;;;;2.50;0.80;;;11.70;99.90;;;;;;5047008;28;20251;-91
2022/04/05 11:06:59;;;;;;;1.07;0.93;;;11.70;99.90;;;;;;5064332;28;20237;-91
2022/04/05 11:09:25;;;;;;;1.67;1.20;;;12.10;99.90;;;;;;5065346;28;20231;-92
2022/04/05 11:11:55;;;;;;;0.53;0.50;;;12.60;99.90;;;;;;5062005;28;20228;-92
2022/04/05 11:14:41;;;;;;;0.60;0.60;;;12.40;99.90;;;;;;5060926;28;20193;-89
2022/04/05 11:17:13;;;;;;;1.60;1.00;;;12.50;99.90;;;;;;5055203;28;20307;-90
2022/04/05 11:19:42;;;;;;;0.47;0.47;;;12.30;99.90;;;;;;5062354;28;20217;-89
2022/04/05 11:22:20;;;;;;;0.67;0.67;;;12.20;99.90;;;;;;5045906;28;20288;-90
2022/04/05 11:24:53;;;;;;;0.90;0.60;;;12.20;99.90;;;;;;5053000;28;20373;-87
2022/04/05 11:27:25;;;;;;;0.20;0.20;;;11.80;99.90;;;;;;5062996;28;20661;-89
2022/04/05 11:30:22;;;;;;;1.20;0.60;;;11.50;99.90;;;;;;5061476;28;21119;-86
2022/04/05 11:33:09;;;;;;;2.10;1.00;;;11.50;99.90;;;;;;5078406;28;20228;-86
2022/04/05 11:35:49;;;;;;;1.50;1.33;;;11.70;99.90;;;;;;5055606;28;20687;-86
2022/04/05 11:38:18;;;;;;;2.70;0.80;;;12.00;99.90;;;;;;5067470;28;20189;-86
2022/04/05 11:40:46;;;;;;;1.77;1.30;;;12.40;99.90;;;;;;5067007;28;21056;-89
2022/04/05 11:43:17;;;;;;;1.43;0.43;;;12.60;99.90;;;;;;5066333;28;20303;-89
2022/04/05 11:45:47;;;;;;;2.03;0.97;;;12.60;99.90;;;;;;5067493;28;20248;-87
2022/04/05 11:48:21;;;;;;;1.33;1.23;;;12.60;99.90;;;;;;5038889;28;20239;-87
2022/04/05 11:50:49;;;;;;;1.40;0.90;;;12.70;99.90;;;;;;5046797;28;20517;-87
2022/04/05 11:53:25;;;;;;;1.40;0.90;;;12.40;99.90;;;;;;5063549;28;20303;-85
2022/04/05 11:56:20;;;;;;;1.73;1.60;;;12.40;99.90;;;;;;5047726;28;20715;-87
2022/04/05 11:58:50;;;;;;;2.27;1.03;;;12.50;99.90;;;;;;5066738;28;20220;-87
2022/04/05 12:01:24;;;;;;;0.67;0.67;;;12.40;99.90;;;;;;5061081;28;21073;-87
2022/04/05 12:03:54;;;;;;;1.73;1.20;;;12.30;99.90;;;;;;5045783;28;20775;-87
2022/04/05 12:06:23;;;;;;;6.67;1.33;;;12.30;99.90;;;;;;5061184;28;20214;-86
2022/04/05 12:08:52;;;;;;;2.20;1.30;;;12.20;99.90;;;;;;5060895;28;20270;-87
2022/04/05 12:11:20;;;;;;;3.57;2.53;;;12.30;99.90;;;;;;5061178;28;20178;-88
2022/04/05 12:13:56;;;;;;;2.07;1.70;;;12.20;99.90;;;;;;5046034;28;20767;-87
2022/04/05 12:16:27;;;;;;;2.47;1.20;;;12.10;99.90;;;;;;5044522;28;20268;-86
2022/04/05 12:18:54;;;;;;;3.93;1.50;;;12.00;99.90;;;;;;5061385;28;20224;-87
2022/04/05 12:21:21;;;;;;;1.83;1.73;;;11.80;99.90;;;;;;5028492;28;20228;-86
2022/04/05 12:23:49;;;;;;;3.03;1.40;;;11.70;99.90;;;;;;5044665;28;20317;-87
2022/04/05 12:26:27;;;;;;;1.83;1.50;;;11.50;99.90;;;;;;5062327;28;20413;-87
2022/04/05 12:28:58;;;;;;;2.90;1.73;;;11.30;99.90;;;;;;5045101;28;20217;-88
2022/04/05 12:31:28;;;;;;;4.73;2.17;;;11.40;99.90;;;;;;5052029;28;20312;-86
2022/04/05 12:33:59;;;;;;;1.77;1.43;;;11.30;99.90;;;;;;5045690;28;20236;-87
2022/04/05 12:36:37;;;;;;;1.27;0.93;;;11.30;99.90;;;;;;5056979;28;20222;-88
2022/04/05 12:39:08;;;;;;;1.70;1.20;;;11.10;99.90;;;;;;5054531;28;20257;-87
2022/04/05 12:41:39;;;;;;;2.57;2.00;;;11.10;99.90;;;;;;5045063;28;20202;-87
2022/04/05 12:44:16;;;;;;;3.50;1.93;;;11.00;99.90;;;;;;5045323;28;20209;-88
2022/04/05 12:46:59;;;;;;;2.10;1.60;;;10.80;99.90;;;;;;5045829;28;20283;-88
2022/04/05 12:49:31;;;;;;;3.33;1.70;;;10.80;99.90;;;;;;5061159;28;20218;-87
2022/04/05 12:52:26;;;;;;;2.73;1.63;;;10.70;99.90;;;;;;5045176;28;20678;-87
2022/04/05 12:55:18;;;;;;;4.43;1.70;;;10.60;99.90;;;;;;5045666;28;20267;-88
2022/04/05 12:57:49;;;;;;;6.57;1.63;;;10.60;99.90;;;;;;5045213;28;20697;-88
2022/04/05 13:00:18;;;;;;;8.00;1.30;;;10.50;99.90;;;;;;5052661;28;20266;-88
2022/04/05 13:02:45;;;;;;;13.43;2.63;;;10.50;99.90;;;;;;5063773;28;20267;-89